Time;durP1;ratioP1;P1;durP2;ratioP2;P2;SDS_P1;SDS_P2;PMS_P1;PMS_P2;Temp;Humidity;BMP_temperature;BMP_pressure;BME280_temperature;BME280_humidity;BME280_pressure;Samples;Min_cycle;Max_cycle;Signal;HPM_P1;HPM_P2
2023/03/13 00:01:38;;;;;;;2.50;1.20;;;;;;;-1.02;65.91;99396.63;107577;1253;72626;-40
2023/03/13 00:04:08;;;;;;;2.90;1.10;;;;;;;-0.98;65.85;99402.13;107550;1254;60560;-40
2023/03/13 00:06:43;;;;;;;2.00;1.20;;;;;;;-0.98;65.54;99407.58;107555;1254;61421;-41
2023/03/13 00:09:13;;;;;;;2.00;1.20;;;;;;;-1.02;65.62;99408.78;107609;1254;74199;-40
2023/03/13 00:11:42;;;;;;;2.90;1.30;;;;;;;-1.04;65.75;99410.28;106646;1254;1016097;-40
2023/03/13 00:14:11;;;;;;;2.60;1.10;;;;;;;-1.08;65.94;99407.19;107587;1254;71621;-40
2023/03/13 00:16:40;;;;;;;2.90;1.30;;;;;;;-1.11;65.94;99412.73;107564;1254;60360;-40
2023/03/13 00:19:11;;;;;;;2.30;1.20;;;;;;;-1.17;65.99;99408.09;107552;1253;61600;-40
2023/03/13 00:21:40;;;;;;;1.60;0.80;;;;;;;-1.25;66.34;99405.48;106762;1254;1003745;-40
2023/03/13 00:24:15;;;;;;;2.10;1.00;;;;;;;-1.32;66.35;99405.09;107159;1254;70276;-40
2023/03/13 00:26:44;;;;;;;4.20;1.40;;;;;;;-1.28;66.47;99413.39;107512;1254;73574;-40
2023/03/13 00:29:13;;;;;;;2.50;1.20;;;;;;;-1.26;66.55;99414.56;107579;1254;60707;-40
2023/03/13 00:31:44;;;;;;;2.40;1.10;;;;;;;-1.29;66.24;99410.11;107354;1254;61344;-41
2023/03/13 00:34:15;;;;;;;2.10;0.90;;;;;;;-1.32;66.52;99412.90;107488;1254;74801;-40
2023/03/13 00:36:45;;;;;;;1.10;0.70;;;;;;;-1.34;66.54;99414.50;107568;1254;69681;-40
2023/03/13 00:39:15;;;;;;;2.30;1.00;;;;;;;-1.36;66.51;99416.39;107568;1254;73538;-40
2023/03/13 00:41:44;;;;;;;1.20;0.80;;;;;;;-1.41;66.75;99420.31;107549;1257;60494;-40
2023/03/13 00:44:13;;;;;;;3.20;1.10;;;;;;;-1.45;66.77;99419.27;107563;1254;61138;-40
2023/03/13 00:46:42;;;;;;;2.10;1.10;;;;;;;-1.48;66.76;99417.34;107635;1254;73835;-40
2023/03/13 00:49:10;;;;;;;2.10;1.00;;;;;;;-1.51;66.87;99414.13;107373;1254;69931;-40
2023/03/13 00:51:41;;;;;;;2.20;1.20;;;;;;;-1.49;66.60;99409.33;107567;1254;73602;-40
2023/03/13 00:54:09;;;;;;;2.80;1.10;;;;;;;-1.42;66.46;99403.89;107564;1254;60551;-40
2023/03/13 00:56:40;;;;;;;2.30;1.00;;;;;;;-1.40;66.05;99404.77;107558;1254;61179;-40
2023/03/13 00:59:08;;;;;;;2.90;0.90;;;;;;;-1.39;66.03;99402.06;107355;1255;75002;-40
2023/03/13 01:01:37;;;;;;;1.90;1.00;;;;;;;-1.35;65.93;99396.64;107465;1254;70085;-40
2023/03/13 01:04:09;;;;;;;1.80;1.00;;;;;;;-1.31;64.74;99394.59;107314;1254;72749;-40
2023/03/13 01:06:41;;;;;;;1.80;1.10;;;;;;;-1.28;64.20;99397.55;107520;1254;60433;-40
2023/03/13 01:09:12;;;;;;;2.40;1.00;;;;;;;-1.27;63.17;99397.64;107562;1254;60434;-40
2023/03/13 01:11:43;;;;;;;2.40;1.30;;;;;;;-1.25;63.28;99397.73;107577;1254;74840;-40
2023/03/13 01:14:18;;;;;;;2.70;1.10;;;;;;;-1.24;63.27;99397.40;107557;1254;69068;-40
2023/03/13 01:16:47;;;;;;;2.00;1.10;;;;;;;-1.22;62.69;99394.73;107587;1257;74054;-40
2023/03/13 01:19:17;;;;;;;2.30;1.20;;;;;;;-1.25;62.15;99403.63;107355;1254;60445;-40
2023/03/13 01:21:46;;;;;;;4.80;1.00;;;;;;;-1.30;61.99;99404.20;107476;1254;61557;-40
2023/03/13 01:24:15;;;;;;;3.00;1.10;;;;;;;-1.37;62.26;99405.40;107609;1254;74774;-40
2023/03/13 01:26:54;;;;;;;3.40;1.60;;;;;;;-1.42;62.53;99410.64;107395;1254;69927;-40
2023/03/13 01:29:23;;;;;;;3.00;1.10;;;;;;;-1.48;62.88;99416.02;107571;1257;73558;-40
2023/03/13 01:31:52;;;;;;;5.50;1.60;;;;;;;-1.53;63.12;99418.13;107358;1260;61564;-40
2023/03/13 01:34:22;;;;;;;;;;;;;;;-1.56;63.51;99422.46;107363;1254;60437;-41
2023/03/13 01:36:52;;;;;;;;;;;;;;;-1.59;63.65;99423.17;107602;1255;73939;-40
2023/03/13 01:39:20;;;;;;;3.00;1.20;;;;;;;-1.60;63.82;99427.60;107541;1254;69959;-40
2023/03/13 01:41:49;;;;;;;2.60;1.20;;;;;;;-1.60;64.16;99428.17;107369;1254;74032;-40
2023/03/13 01:44:24;;;;;;;2.50;1.20;;;;;;;-1.61;64.21;99436.23;107487;1254;60650;-40
2023/03/13 01:46:53;;;;;;;1.80;1.20;;;;;;;-1.64;64.54;99437.50;107320;1254;61519;-40
2023/03/13 01:49:32;;;;;;;4.60;1.60;;;;;;;-1.68;64.81;99441.52;107497;1254;75032;-40
2023/03/13 01:52:13;;;;;;;2.60;1.50;;;;;;;-1.70;64.86;99442.70;107552;1254;69702;-40
2023/03/13 01:54:55;;;;;;;3.90;1.30;;;;;;;-1.71;65.10;99445.11;107494;1257;73995;-40
2023/03/13 01:57:30;;;;;;;2.40;1.40;;;;;;;-1.74;65.38;99447.46;107472;1254;60412;-40
2023/03/13 02:00:06;;;;;;;2.90;1.40;;;;;;;-1.75;65.57;99448.82;107164;1254;61553;-40
2023/03/13 02:02:49;;;;;;;2.70;1.30;;;;;;;-1.79;65.60;99452.56;107564;1254;75031;-40
2023/03/13 02:05:19;;;;;;;3.30;1.20;;;;;;;-1.85;65.96;99456.01;107581;1254;68843;-40
2023/03/13 02:08:10;;;;;;;2.50;1.30;;;;;;;-1.88;65.97;99453.73;107447;1254;74944;-40
2023/03/13 02:10:42;;;;;;;2.90;1.40;;;;;;;-1.90;66.05;99451.52;107364;1254;63151;-40
2023/03/13 02:13:16;;;;;;;2.70;1.20;;;;;;;-1.86;66.01;99457.11;107396;1254;61330;-40
2023/03/13 02:15:46;;;;;;;3.10;1.20;;;;;;;-1.77;66.02;99458.49;107546;1257;74767;-40
2023/03/13 02:18:16;;;;;;;3.00;1.40;;;;;;;-1.75;66.27;99463.10;107463;1254;68776;-40
2023/03/13 02:21:07;;;;;;;3.10;1.50;;;;;;;-1.75;66.32;99467.56;107528;1254;73829;-40
2023/03/13 02:23:45;;;;;;;5.30;1.90;;;;;;;-1.73;66.35;99462.14;107295;1254;60635;-40
2023/03/13 02:26:14;;;;;;;3.60;1.80;;;;;;;-1.71;66.32;99462.35;107355;1260;60043;-40
2023/03/13 02:28:45;;;;;;;4.80;2.20;;;;;;;-1.72;66.31;99459.52;107533;1254;74939;-40
2023/03/13 02:31:16;;;;;;;3.40;2.20;;;;;;;-1.72;66.24;99464.73;107222;1254;69026;-39
2023/03/13 02:33:46;;;;;;;5.80;2.20;;;;;;;-1.77;66.27;99447.18;107583;1254;73517;-40
2023/03/13 02:36:19;;;;;;;5.00;1.70;;;;;;;-1.63;66.34;99462.34;107576;1254;60594;-40
2023/03/13 02:38:58;;;;;;;2.80;1.50;;;;;;;-1.57;66.20;99466.50;107301;1254;61634;-40
2023/03/13 02:41:27;;;;;;;5.50;1.90;;;;;;;-1.55;65.96;99464.77;107367;1254;75054;-40
2023/03/13 02:44:04;;;;;;;3.40;1.70;;;;;;;-1.54;65.70;99464.66;107409;1254;69373;-40
2023/03/13 02:46:51;;;;;;;3.60;1.60;;;;;;;-1.57;65.44;99470.05;107394;1254;74487;-40
2023/03/13 02:49:27;;;;;;;2.50;1.50;;;;;;;-1.60;65.31;99476.20;107435;1254;60633;-41
2023/03/13 02:51:59;;;;;;;4.50;1.50;;;;;;;-1.62;65.37;99477.85;107552;1257;60413;-40
2023/03/13 02:54:31;;;;;;;2.80;1.30;;;;;;;-1.63;65.37;99479.66;106604;1254;1002766;-40
2023/03/13 02:57:02;;;;;;;5.70;1.90;;;;;;;-1.65;65.23;99481.32;106775;1254;1003500;-40
2023/03/13 02:59:31;;;;;;;3.10;1.40;;;;;;;-1.66;64.99;99486.55;107524;1254;73566;-40
2023/03/13 03:02:00;;;;;;;3.20;1.60;;;;;;;-1.68;64.95;99485.28;106795;1254;1003934;-40
2023/03/13 03:04:29;;;;;;;2.90;1.50;;;;;;;-1.70;64.86;99491.58;107532;1254;60801;-40
2023/03/13 03:06:58;;;;;;;5.50;2.10;;;;;;;-1.72;65.03;99494.08;107472;1254;74929;-40
2023/03/13 03:09:27;;;;;;;1.80;1.10;;;;;;;-1.74;65.04;99497.86;107497;1254;69857;-40
2023/03/13 03:12:01;;;;;;;4.00;1.80;;;;;;;-1.76;64.92;99502.39;107471;1255;73810;-40
2023/03/13 03:14:31;;;;;;;2.80;1.50;;;;;;;-1.79;65.35;99506.71;107536;1254;61386;-40
2023/03/13 03:17:00;;;;;;;4.30;1.60;;;;;;;-1.75;65.35;99506.95;107521;1254;61236;-40
2023/03/13 03:19:30;;;;;;;4.10;1.70;;;;;;;-1.63;65.26;99509.60;107494;1254;75017;-40
2023/03/13 03:22:00;;;;;;;4.00;1.50;;;;;;;-1.57;65.19;99516.67;107463;1254;69844;-40
2023/03/13 03:24:29;;;;;;;4.90;1.40;;;;;;;-1.53;64.91;99524.16;106737;1254;1005822;-40
2023/03/13 03:26:57;;;;;;;3.30;1.40;;;;;;;-1.50;65.06;99528.55;107324;1254;60428;-40
2023/03/13 03:29:29;;;;;;;3.70;1.30;;;;;;;-1.47;64.80;99540.16;106753;1254;1003634;-40
2023/03/13 03:31:59;;;;;;;3.50;1.80;;;;;;;-1.44;65.01;99544.30;107569;1254;75076;-40
2023/03/13 03:34:29;;;;;;;2.50;1.30;;;;;;;-1.45;65.30;99553.66;107576;1254;68893;-41
2023/03/13 03:37:01;;;;;;;2.20;1.50;;;;;;;-1.48;65.44;99557.99;107366;1254;73628;-40
2023/03/13 03:39:31;;;;;;;2.50;1.40;;;;;;;-1.59;65.46;99561.04;107538;1254;60579;-40
2023/03/13 03:42:00;;;;;;;3.50;1.50;;;;;;;-1.66;65.90;99562.88;107325;1254;61611;-40
2023/03/13 03:44:29;;;;;;;2.70;1.60;;;;;;;-1.68;66.09;99561.02;106741;1254;1003006;-40
2023/03/13 03:47:01;;;;;;;4.40;1.50;;;;;;;-1.67;66.18;99564.85;107299;1254;69934;-41
2023/03/13 03:49:35;;;;;;;2.20;1.20;;;;;;;-1.66;66.07;99567.56;107452;1254;73889;-40
2023/03/13 03:52:05;;;;;;;3.00;1.60;;;;;;;-1.65;66.07;99569.04;107552;1254;60549;-40
2023/03/13 03:54:38;;;;;;;4.20;1.80;;;;;;;-1.65;66.04;99565.05;107353;1254;60385;-40
2023/03/13 03:57:07;;;;;;;4.10;1.80;;;;;;;-1.65;65.71;99565.73;107483;1254;74692;-40
2023/03/13 03:59:38;;;;;;;2.90;1.50;;;;;;;-1.67;65.52;99564.33;107461;1254;69929;-40
2023/03/13 04:02:08;;;;;;;5.20;1.70;;;;;;;-1.67;65.58;99573.52;107455;1257;73348;-40
2023/03/13 04:04:38;;;;;;;4.50;2.00;;;;;;;-1.68;65.40;99577.55;107464;1257;60399;-41
2023/03/13 04:07:13;;;;;;;5.40;2.10;;;;;;;-1.71;65.47;99579.75;107418;1256;61386;-40
2023/03/13 04:09:42;;;;;;;5.00;1.90;;;;;;;-1.73;65.91;99584.27;107258;1256;75015;-40
2023/03/13 04:12:16;;;;;;;3.60;1.90;;;;;;;-1.66;66.11;99584.20;107213;1256;69595;-40
2023/03/13 04:14:47;;;;;;;4.80;2.10;;;;;;;-1.54;65.89;99587.95;107473;1257;72617;-41
2023/03/13 04:17:16;;;;;;;2.90;1.70;;;;;;;-1.46;65.90;99592.80;107444;1257;60583;-41
2023/03/13 04:19:47;;;;;;;6.90;2.30;;;;;;;-1.40;66.05;99592.29;107465;1258;61633;-41
2023/03/13 04:22:17;;;;;;;4.30;2.00;;;;;;;-1.33;66.23;99598.21;107382;1257;74898;-40
2023/03/13 04:24:52;;;;;;;4.40;2.30;;;;;;;-1.28;66.06;99601.31;107299;1257;69590;-40
2023/03/13 04:27:21;;;;;;;7.00;2.20;;;;;;;-1.22;65.89;99602.17;107330;1257;74598;-40
2023/03/13 04:29:51;;;;;;;4.90;2.40;;;;;;;-1.16;66.08;99600.81;107323;1257;60600;-41
2023/03/13 04:32:26;;;;;;;3.30;1.90;;;;;;;-1.12;65.87;99610.58;107442;1256;61537;-40
2023/03/13 04:35:10;;;;;;;5.60;2.00;;;;;;;-1.12;65.85;99609.25;107318;1257;75143;-40
2023/03/13 04:38:11;;;;;;;5.40;2.10;;;;;;;-1.11;65.99;99610.19;107099;1257;69650;-41
2023/03/13 04:40:58;;;;;;;6.10;2.20;;;;;;;-1.09;65.99;99605.77;107411;1257;73867;-40
2023/03/13 04:43:45;;;;;;;5.20;2.30;;;;;;;-1.05;66.20;99607.66;107446;1256;60823;-40
2023/03/13 04:46:46;;;;;;;7.40;2.50;;;;;;;-1.03;66.13;99607.44;107004;1256;61665;-40
2023/03/13 04:49:35;;;;;;;2.80;1.70;;;;;;;-1.02;66.26;99609.34;107306;1257;74823;-40
2023/03/13 04:52:30;;;;;;;5.40;2.20;;;;;;;-1.08;66.35;99596.94;107175;1257;70074;-41
2023/03/13 04:55:39;;;;;;;3.70;2.00;;;;;;;-0.96;66.42;99613.02;106923;1265;72641;-40
2023/03/13 04:58:34;;;;;;;7.40;2.20;;;;;;;-0.94;66.63;99616.15;107145;1260;62406;-40
2023/03/13 05:01:34;;;;;;;4.60;2.10;;;;;;;-0.81;66.82;99616.95;107305;1257;61529;-40
2023/03/13 05:04:33;;;;;;;4.00;2.30;;;;;;;-0.69;66.62;99623.67;106902;1266;75034;-41
2023/03/13 05:07:26;;;;;;;4.70;2.20;;;;;;;-0.65;66.99;99628.33;107220;1257;69988;-40
2023/03/13 05:10:27;;;;;;;6.40;2.20;;;;;;;-0.59;67.18;99634.40;107027;1257;73755;-40
2023/03/13 05:13:25;;;;;;;5.70;1.90;;;;;;;-0.56;67.39;99632.23;107151;1257;60537;-40
2023/03/13 05:16:14;;;;;;;4.10;2.10;;;;;;;-0.56;67.44;99639.43;107035;1257;60526;-41
2023/03/13 05:19:04;;;;;;;10.40;3.10;;;;;;;-0.54;67.72;99638.02;107209;1257;74022;-40
2023/03/13 05:21:43;;;;;;;4.80;2.50;;;;;;;-0.61;67.87;99629.83;107177;1259;69641;-40
2023/03/13 05:24:25;;;;;;;7.70;2.70;;;;;;;-0.55;68.14;99647.90;107235;1256;73596;-40
2023/03/13 05:27:28;;;;;;;5.70;2.60;;;;;;;-0.56;68.59;99650.83;107040;1256;62887;-40
2023/03/13 05:30:19;;;;;;;8.80;3.60;;;;;;;-0.49;68.87;99654.66;107061;1256;60553;-40
2023/03/13 05:33:21;;;;;;;9.00;4.10;;;;;;;-0.42;69.12;99657.37;107246;1259;74895;-40
2023/03/13 05:36:08;;;;;;;6.60;3.30;;;;;;;-0.41;69.26;99656.67;107169;1257;69962;-40
2023/03/13 05:39:02;;;;;;;5.90;3.40;;;;;;;-0.38;69.46;99658.71;107252;1256;73908;-40
2023/03/13 05:41:57;;;;;;;7.00;3.10;;;;;;;-0.33;69.50;99658.98;107103;1257;60777;-40
2023/03/13 05:44:57;;;;;;;7.80;3.50;;;;;;;-0.26;69.66;99661.27;107077;1256;61506;-40
2023/03/13 05:47:47;;;;;;;7.00;3.50;;;;;;;-0.23;69.51;99665.35;107268;1257;74885;-40
2023/03/13 05:50:33;;;;;;;8.00;3.40;;;;;;;-0.19;69.62;99663.50;107256;1257;69789;-40
2023/03/13 05:53:16;;;;;;;7.20;3.40;;;;;;;-0.08;69.29;99669.52;107258;1256;73893;-40
2023/03/13 05:56:10;;;;;;;7.00;3.90;;;;;;;0.04;69.32;99673.34;107207;1256;60595;-40
2023/03/13 05:58:52;;;;;;;5.90;3.70;;;;;;;0.09;69.29;99678.57;107127;1257;61395;-40
2023/03/13 06:01:39;;;;;;;7.70;4.10;;;;;;;0.13;68.98;99681.26;107198;1256;74872;-40
2023/03/13 06:04:26;;;;;;;7.70;4.50;;;;;;;0.15;68.96;99686.28;107379;1259;68639;-40
2023/03/13 06:06:54;;;;;;;8.50;4.90;;;;;;;0.19;69.38;99689.61;107453;1257;72625;-40
2023/03/13 06:09:24;;;;;;;7.40;4.00;;;;;;;0.25;69.42;99692.10;107478;1256;60466;-40
2023/03/13 06:11:55;;;;;;;7.30;3.60;;;;;;;0.38;69.10;99694.20;107415;1256;61228;-40
2023/03/13 06:14:24;;;;;;;8.70;3.90;;;;;;;0.55;69.17;99694.44;107425;1257;75056;-40
2023/03/13 06:17:25;;;;;;;6.10;3.50;;;;;;;0.69;68.87;99692.61;107097;1257;69965;-40
2023/03/13 06:19:54;;;;;;;7.60;4.00;;;;;;;0.76;68.36;99694.65;107459;1257;73625;-40
2023/03/13 06:22:24;;;;;;;6.20;3.70;;;;;;;0.85;68.04;99693.30;107458;1260;60415;-40
2023/03/13 06:24:53;;;;;;;8.40;4.60;;;;;;;0.92;67.47;99698.29;107451;1256;61698;-40
2023/03/13 06:27:23;;;;;;;8.70;4.80;;;;;;;0.95;67.29;99689.86;107412;1257;74760;-40
2023/03/13 06:29:52;;;;;;;9.50;5.00;;;;;;;1.00;67.26;99695.13;107323;1257;69505;-40
2023/03/13 06:32:20;;;;;;;6.90;4.30;;;;;;;1.06;67.22;99696.81;107353;1256;73862;-40
2023/03/13 06:34:51;;;;;;;6.50;4.10;;;;;;;1.19;66.78;99700.27;107411;1260;61148;-40
2023/03/13 06:37:19;;;;;;;8.20;4.00;;;;;;;1.33;66.79;99701.60;107435;1258;61572;-40
2023/03/13 06:39:48;;;;;;;7.30;4.50;;;;;;;1.43;66.40;99699.73;107443;1258;75049;-41
2023/03/13 06:42:16;;;;;;;8.50;4.60;;;;;;;1.51;65.70;99697.65;107463;1257;70100;-40
2023/03/13 06:44:45;;;;;;;9.60;4.80;;;;;;;1.59;65.34;99700.30;107467;1257;73769;-40
2023/03/13 06:47:13;;;;;;;10.10;5.10;;;;;;;1.66;65.21;99692.17;107435;1256;60803;-40
2023/03/13 06:49:42;;;;;;;9.10;5.30;;;;;;;1.73;65.11;99693.66;107504;1257;61324;-40
2023/03/13 06:52:11;;;;;;;9.00;4.70;;;;;;;1.80;64.49;99693.11;107462;1257;74395;-40
2023/03/13 06:54:41;;;;;;;9.10;4.90;;;;;;;1.85;64.22;99687.36;107454;1256;70011;-40
2023/03/13 06:57:10;;;;;;;10.00;4.80;;;;;;;1.93;64.04;99693.96;107418;1256;73491;-40
2023/03/13 06:59:38;;;;;;;6.30;4.40;;;;;;;2.01;64.10;99699.27;106593;1256;1003027;-40
2023/03/13 07:02:10;;;;;;;9.60;5.30;;;;;;;2.08;63.50;99696.88;107334;1256;61535;-40
2023/03/13 07:04:38;;;;;;;8.90;4.30;;;;;;;2.17;62.97;99698.19;107431;1255;73641;-40
2023/03/13 07:07:07;;;;;;;9.10;4.40;;;;;;;2.26;62.26;99698.70;107453;1257;69978;-40
2023/03/13 07:09:46;;;;;;;8.40;4.30;;;;;;;2.40;61.61;99701.05;107415;1256;73945;-40
2023/03/13 07:12:16;;;;;;;15.40;4.70;;;;;;;2.46;61.52;99709.13;107377;1258;60290;-41
2023/03/13 07:14:46;;;;;;;10.60;5.20;;;;;;;2.52;61.34;99704.26;107362;1257;60335;-40
2023/03/13 07:17:14;;;;;;;8.90;5.10;;;;;;;2.58;61.01;99712.10;107463;1257;75054;-40
2023/03/13 07:19:43;;;;;;;8.40;4.80;;;;;;;2.64;60.41;99705.04;107456;1257;69845;-40
2023/03/13 07:22:11;;;;;;;9.30;4.80;;;;;;;2.66;59.92;99706.88;107397;1257;73979;-40
2023/03/13 07:24:47;;;;;;;7.80;4.20;;;;;;;2.70;59.86;99702.39;107403;1256;60742;-40
2023/03/13 07:27:16;;;;;;;6.60;3.80;;;;;;;2.73;59.57;99701.86;107431;1258;61272;-40
2023/03/13 07:29:45;;;;;;;8.10;4.10;;;;;;;2.75;59.29;99706.13;107462;1257;75067;-41
2023/03/13 07:32:13;;;;;;;8.70;4.50;;;;;;;2.80;59.28;99705.78;107482;1257;69924;-40
2023/03/13 07:34:45;;;;;;;8.20;5.00;;;;;;;2.87;59.57;99707.34;107462;1259;73879;-40
2023/03/13 07:37:16;;;;;;;9.50;4.70;;;;;;;2.96;59.07;99706.89;107423;1260;60707;-40
2023/03/13 07:39:45;;;;;;;7.30;4.20;;;;;;;3.03;58.68;99702.98;107443;1257;61580;-40
2023/03/13 07:42:13;;;;;;;12.90;4.60;;;;;;;3.10;58.93;99701.12;107438;1257;75022;-40
2023/03/13 07:44:43;;;;;;;10.20;4.60;;;;;;;3.20;58.99;99701.34;107459;1259;70181;-41
2023/03/13 07:47:11;;;;;;;8.00;4.30;;;;;;;3.31;58.86;99700.55;107415;1257;72901;-40
2023/03/13 07:49:42;;;;;;;7.90;4.00;;;;;;;3.43;58.44;99703.05;107456;1257;60765;-40
2023/03/13 07:52:12;;;;;;;8.40;4.30;;;;;;;3.57;58.15;99707.45;107441;1257;60935;-40
2023/03/13 07:54:41;;;;;;;8.30;4.00;;;;;;;3.72;58.42;99702.00;107352;1259;75075;-40
2023/03/13 07:57:11;;;;;;;8.90;4.00;;;;;;;3.88;57.52;99706.58;107423;1257;69855;-40
2023/03/13 07:59:40;;;;;;;6.80;4.10;;;;;;;4.00;56.11;99704.51;107453;1258;72813;-41
2023/03/13 08:02:12;;;;;;;7.20;4.20;;;;;;;4.06;55.77;99706.78;107343;1257;60776;-41
2023/03/13 08:04:41;;;;;;;8.50;3.80;;;;;;;4.12;55.69;99707.31;107481;1256;59735;-40
2023/03/13 08:07:11;;;;;;;8.70;4.20;;;;;;;4.17;54.39;99712.86;107449;1255;75005;-41
2023/03/13 08:09:40;;;;;;;9.30;4.40;;;;;;;4.21;54.51;99715.83;107446;1259;70029;-40
2023/03/13 08:12:13;;;;;;;29.40;25.60;;;;;;;4.24;54.25;99723.19;107417;1257;73763;-40
2023/03/13 08:14:47;;;;;;;10.70;5.40;;;;;;;4.28;54.44;99718.17;107447;1257;60296;-41
2023/03/13 08:17:15;;;;;;;9.60;5.50;;;;;;;4.32;54.05;99717.36;107219;1258;61735;-41
2023/03/13 08:22:31;;;;;;;10.50;5.00;;;;;;;4.39;52.61;99709.30;104268;1292;599872;-39
2023/03/13 08:25:00;;;;;;;10.70;4.70;;;;;;;4.40;53.33;99708.64;106772;1266;59806;-40
2023/03/13 08:27:29;;;;;;;13.30;6.30;;;;;;;4.46;54.08;99713.32;106720;1266;60276;-40
2023/03/13 08:29:58;;;;;;;8.10;3.30;;;;;;;4.49;53.30;99715.45;106655;1267;73477;-40
2023/03/13 08:32:27;;;;;;;5.30;3.20;;;;;;;4.50;54.03;99713.48;106652;1267;70232;-39
2023/03/13 08:34:56;;;;;;;9.20;4.90;;;;;;;4.52;54.14;99716.50;106635;1267;72022;-39
2023/03/13 08:37:25;;;;;;;14.80;6.30;;;;;;;4.58;54.37;99724.21;106650;1265;59125;-40
2023/03/13 08:39:55;;;;;;;8.90;4.90;;;;;;;4.63;54.08;99722.30;106764;1264;61227;-40
2023/03/13 08:42:24;;;;;;;10.60;5.20;;;;;;;4.67;54.50;99714.18;106640;1266;73849;-40
2023/03/13 08:44:55;;;;;;;10.30;5.10;;;;;;;4.75;54.63;99717.02;106730;1264;69530;-40
2023/03/13 08:47:23;;;;;;;17.60;6.80;;;;;;;4.83;54.19;99714.31;106692;1266;74049;-40
2023/03/13 08:49:52;;;;;;;11.60;5.50;;;;;;;4.91;53.69;99714.50;107405;1253;60433;-40
2023/03/13 08:52:21;;;;;;;9.30;4.60;;;;;;;4.96;53.14;99710.99;107461;1253;61529;-40
2023/03/13 08:54:49;;;;;;;14.00;5.90;;;;;;;5.01;52.54;99709.93;107508;1253;73656;-40
2023/03/13 08:57:18;;;;;;;11.10;5.00;;;;;;;5.05;51.36;99706.81;107497;1253;69904;-40
2023/03/13 08:59:46;;;;;;;7.40;4.10;;;;;;;5.08;51.25;99713.10;107484;1256;74229;-40
2023/03/13 09:02:19;;;;;;;9.60;4.80;;;;;;;5.11;51.19;99708.46;107485;1253;60814;-40
2023/03/13 09:04:48;;;;;;;11.10;4.70;;;;;;;5.12;52.02;99709.60;107512;1253;61523;-40
2023/03/13 09:07:17;;;;;;;7.30;4.60;;;;;;;5.15;51.03;99707.26;107512;1253;74611;-40
2023/03/13 09:09:45;;;;;;;11.40;4.90;;;;;;;5.17;50.42;99703.80;107466;1255;69906;-40
2023/03/13 09:12:14;;;;;;;10.30;4.90;;;;;;;5.22;50.74;99703.90;107488;1253;73212;-40
2023/03/13 09:15:04;;;;;;;10.60;5.00;;;;;;;5.32;50.77;99703.19;107497;1253;60837;-40
2023/03/13 09:17:33;;;;;;;7.70;4.00;;;;;;;5.37;51.39;99700.95;107569;1253;61246;-40
2023/03/13 09:20:03;;;;;;;9.60;4.80;;;;;;;5.43;50.90;99700.78;107487;1254;74222;-40
2023/03/13 09:22:32;;;;;;;;;;;;;;;5.52;51.04;99700.56;107359;1256;69938;-40
2023/03/13 09:25:00;;;;;;;6.90;3.70;;;;;;;5.54;50.84;99706.95;107401;1255;73025;-40
2023/03/13 09:27:32;;;;;;;7.40;4.10;;;;;;;5.56;50.43;99697.27;107363;1255;60836;-40
2023/03/13 09:30:01;;;;;;;7.00;3.90;;;;;;;5.60;49.50;99701.16;107366;1255;61617;-40
2023/03/13 09:32:30;;;;;;;19.30;10.50;;;;;;;5.69;50.05;99690.36;107418;1255;74048;-40
2023/03/13 09:35:00;;;;;;;7.80;4.10;;;;;;;5.82;50.16;99692.35;107377;1255;69966;-40
2023/03/13 09:37:28;;;;;;;9.00;4.50;;;;;;;6.00;50.00;99690.52;106586;1255;1003777;-40
2023/03/13 09:40:07;;;;;;;8.10;4.00;;;;;;;6.21;49.17;99692.02;107327;1255;61075;-40
2023/03/13 09:42:53;;;;;;;6.30;4.10;;;;;;;6.41;48.35;99685.00;107362;1255;61274;-40
2023/03/13 09:45:35;;;;;;;7.00;3.90;;;;;;;6.75;48.64;99683.63;107338;1255;74244;-40
2023/03/13 09:48:18;;;;;;;6.00;3.30;;;;;;;7.09;47.72;99678.86;107323;1255;68693;-40
2023/03/13 09:50:50;;;;;;;8.80;3.90;;;;;;;7.39;47.66;99671.81;107317;1255;72936;-40
2023/03/13 09:53:29;;;;;;;11.60;5.60;;;;;;;7.60;48.07;99676.70;107265;1255;59652;-40
2023/03/13 09:55:57;;;;;;;9.80;5.10;;;;;;;7.74;48.00;99670.42;107410;1255;61167;-40
2023/03/13 09:58:27;;;;;;;7.60;4.60;;;;;;;7.83;47.13;99659.33;107354;1255;74437;-40
2023/03/13 10:01:01;;;;;;;11.50;5.60;;;;;;;7.80;45.66;99659.84;107365;1255;70011;-41
2023/03/13 10:03:56;;;;;;;8.80;5.00;;;;;;;7.66;46.30;99654.88;107368;1256;73781;-41
2023/03/13 10:06:25;;;;;;;9.00;5.00;;;;;;;7.49;46.96;99662.59;107293;1255;60676;-41
2023/03/13 10:08:56;;;;;;;6.20;3.60;;;;;;;7.31;47.22;99665.59;107253;1256;61559;-41
2023/03/13 10:11:37;;;;;;;5.80;3.70;;;;;;;7.15;46.78;99662.05;107251;1255;74232;-41
2023/03/13 10:14:10;;;;;;;7.50;3.60;;;;;;;6.99;46.97;99659.86;107315;1255;69953;-41
2023/03/13 10:16:47;;;;;;;10.40;4.20;;;;;;;6.87;47.76;99657.89;107333;1255;73779;-41
2023/03/13 10:19:18;;;;;;;8.50;4.10;;;;;;;6.74;48.38;99652.56;107308;1255;61230;-41
2023/03/13 10:21:52;;;;;;;7.90;4.00;;;;;;;6.65;49.11;99647.92;107474;1253;61550;-41
2023/03/13 10:25:02;;;;;;;7.70;3.80;;;;;;;6.59;48.92;99650.52;107610;1253;74312;-41
2023/03/13 10:27:30;;;;;;;8.00;4.10;;;;;;;6.52;49.19;99642.16;106672;1253;1003004;-41
2023/03/13 10:29:59;;;;;;;6.40;3.60;;;;;;;6.48;49.52;99633.25;107518;1253;73687;-40
2023/03/13 10:32:28;;;;;;;8.10;3.80;;;;;;;6.52;49.70;99621.34;107524;1253;60761;-41
2023/03/13 10:34:59;;;;;;;10.20;3.80;;;;;;;6.61;50.11;99615.65;107515;1253;61384;-41
2023/03/13 10:37:29;;;;;;;6.80;3.40;;;;;;;6.71;50.31;99617.17;107533;1253;73542;-41
2023/03/13 10:40:14;;;;;;;6.60;3.80;;;;;;;6.80;49.28;99609.86;107485;1256;70132;-41
2023/03/13 10:42:44;;;;;;;8.50;4.30;;;;;;;6.90;50.51;99606.07;107495;1253;73799;-41
2023/03/13 10:45:20;;;;;;;8.20;4.10;;;;;;;6.97;49.88;99604.55;107443;1253;60523;-41
2023/03/13 10:47:55;;;;;;;6.00;3.80;;;;;;;7.02;48.68;99608.42;107556;1253;60171;-41
2023/03/13 10:50:24;;;;;;;8.30;3.80;;;;;;;7.06;48.51;99607.55;107521;1253;74349;-41
2023/03/13 10:52:54;;;;;;;5.70;3.90;;;;;;;7.10;48.21;99596.88;107595;1253;69618;-41
2023/03/13 10:55:24;;;;;;;8.90;3.90;;;;;;;7.15;48.09;99598.11;107559;1257;73873;-41
2023/03/13 10:58:02;;;;;;;8.30;3.80;;;;;;;7.17;48.07;99598.96;107526;1253;59507;-41
2023/03/13 11:00:38;;;;;;;7.20;3.90;;;;;;;7.18;48.15;99597.83;107529;1253;60343;-41
2023/03/13 11:03:22;;;;;;;5.30;3.40;;;;;;;7.15;47.86;99600.04;107479;1253;74635;-41
2023/03/13 11:05:56;;;;;;;6.20;3.40;;;;;;;7.13;48.24;99593.88;107507;1257;69766;-41
2023/03/13 11:08:26;;;;;;;5.10;3.10;;;;;;;7.10;48.21;99596.72;107557;1253;72406;-41
2023/03/13 11:10:58;;;;;;;6.00;3.10;;;;;;;7.05;47.42;99593.42;107535;1253;60813;-41
2023/03/13 11:13:34;;;;;;;4.80;3.20;;;;;;;7.02;48.58;99585.94;107588;1253;61278;-41
2023/03/13 11:16:28;;;;;;;6.30;3.70;;;;;;;7.01;47.54;99579.95;107505;1253;73388;-41
2023/03/13 11:19:07;;;;;;;6.10;3.40;;;;;;;7.01;47.77;99579.66;107538;1253;69965;-41
2023/03/13 11:21:54;;;;;;;5.40;3.30;;;;;;;7.00;47.71;99575.54;107527;1253;73936;-41
2023/03/13 11:24:41;;;;;;;7.20;3.90;;;;;;;7.03;48.05;99570.73;107547;1253;60736;-41
2023/03/13 11:27:22;;;;;;;6.00;3.80;;;;;;;7.10;48.00;99563.27;107479;1253;61528;-41
2023/03/13 11:30:21;;;;;;;7.00;3.90;;;;;;;7.07;47.60;99553.32;107467;1253;72363;-41
2023/03/13 11:32:55;;;;;;;6.70;2.80;;;;;;;7.19;47.98;99561.68;107463;1253;69975;-41
2023/03/13 11:35:41;;;;;;;8.00;4.30;;;;;;;7.20;47.86;99553.46;107488;1253;73522;-41
2023/03/13 11:38:42;;;;;;;8.40;3.60;;;;;;;7.28;47.84;99553.77;107494;1253;60669;-41
2023/03/13 11:41:23;;;;;;;7.40;3.80;;;;;;;7.29;46.42;99540.61;107116;1253;61590;-42
2023/03/13 11:44:07;;;;;;;5.20;3.20;;;;;;;7.27;47.61;99540.84;107572;1253;74454;-41
2023/03/13 11:46:58;;;;;;;8.80;3.90;;;;;;;7.27;46.79;99531.36;107540;1253;68821;-41
2023/03/13 11:49:59;;;;;;;8.50;3.30;;;;;;;7.26;47.27;99530.72;107570;1253;72051;-42
2023/03/13 11:52:39;;;;;;;9.20;3.50;;;;;;;7.25;47.70;99521.84;107385;1258;60691;-41
2023/03/13 11:55:36;;;;;;;10.70;4.40;;;;;;;7.25;47.91;99526.76;107460;1253;61509;-41
2023/03/13 11:58:29;;;;;;;7.50;3.60;;;;;;;7.27;48.34;99519.98;107461;1253;75492;-41
2023/03/13 12:00:59;;;;;;;10.10;4.30;;;;;;;7.27;48.40;99524.98;107520;1253;70420;-41
2023/03/13 12:03:43;;;;;;;11.20;4.00;;;;;;;7.28;48.74;99515.06;107529;1253;73874;-41
2023/03/13 12:06:48;;;;;;;7.30;3.90;;;;;;;7.30;48.56;99530.08;107490;1253;60889;-41
2023/03/13 12:09:23;;;;;;;8.80;3.60;;;;;;;7.24;47.91;99513.25;107351;1253;60894;-41